Time;durP1;ratioP1;P1;durP2;ratioP2;P2;SDS_P1;SDS_P2;PMS_P1;PMS_P2;Temp;Humidity;BMP_temperature;BMP_pressure;BME280_temperature;BME280_humidity;BME280_pressure;Samples;Min_cycle;Max_cycle;Signal;HPM_P1;HPM_P2
2021/05/25 00:02:13;;;;;;;0.60;0.60;;;14.60;40.10;;;;;;10380491;28;20246;-70
2021/05/25 00:07:16;;;;;;;0.60;0.60;;;14.50;39.80;;;;;;10382422;28;20249;-70
2021/05/25 00:12:19;;;;;;;0.50;0.50;;;14.30;39.40;;;;;;10381900;28;20272;-70
2021/05/25 00:17:23;;;;;;;0.67;0.63;;;14.20;39.30;;;;;;10383316;28;20309;-69
2021/05/25 00:22:26;;;;;;;0.77;0.77;;;14.10;39.30;;;;;;10381792;28;20819;-70
2021/05/25 00:27:29;;;;;;;1.57;0.60;;;14.00;39.30;;;;;;10376161;28;20230;-69
2021/05/25 00:32:33;;;;;;;1.23;0.53;;;13.90;39.20;;;;;;10378524;28;20230;-69
2021/05/25 00:37:36;;;;;;;0.57;0.57;;;13.90;39.50;;;;;;10383995;28;20944;-70
2021/05/25 00:42:41;;;;;;;1.57;0.50;;;13.80;39.40;;;;;;10376536;28;20317;-69
2021/05/25 00:47:45;;;;;;;1.17;0.73;;;13.90;39.60;;;;;;10375661;28;20317;-69
2021/05/25 00:52:49;;;;;;;0.87;0.70;;;13.80;39.40;;;;;;10371994;28;20233;-70
2021/05/25 00:57:54;;;;;;;0.53;0.53;;;13.80;39.50;;;;;;10374618;28;20265;-70
2021/05/25 01:02:57;;;;;;;0.67;0.67;;;13.70;39.50;;;;;;10379055;28;20221;-69
2021/05/25 01:08:00;;;;;;;0.87;0.60;;;13.60;39.70;;;;;;10374552;28;20253;-70
2021/05/25 01:13:07;;;;;;;1.07;0.70;;;13.60;39.80;;;;;;10383970;28;20230;-69
2021/05/25 01:18:11;;;;;;;2.37;0.87;;;13.50;39.70;;;;;;10383681;28;20226;-69
2021/05/25 01:23:15;;;;;;;0.70;0.70;;;13.50;39.90;;;;;;10380478;28;20710;-69
2021/05/25 01:28:20;;;;;;;0.80;0.80;;;13.30;40.10;;;;;;10387134;28;20245;-69
2021/05/25 01:33:25;;;;;;;1.60;0.80;;;13.30;40.10;;;;;;10387689;28;20765;-69
2021/05/25 01:38:29;;;;;;;0.77;0.60;;;13.20;40.30;;;;;;10384070;28;20249;-68
2021/05/25 01:43:32;;;;;;;1.00;0.70;;;13.10;40.40;;;;;;10372412;28;20234;-66
2021/05/25 01:48:35;;;;;;;2.47;0.80;;;13.00;40.20;;;;;;10372214;28;20257;-66
2021/05/25 01:53:39;;;;;;;0.80;0.80;;;13.00;40.40;;;;;;10371964;28;20230;-67
2021/05/25 01:58:41;;;;;;;1.73;0.80;;;13.00;40.60;;;;;;10371943;28;20313;-66
2021/05/25 02:03:44;;;;;;;0.80;0.80;;;13.00;40.60;;;;;;10371844;28;20240;-67
2021/05/25 02:08:48;;;;;;;4.50;0.77;;;13.00;40.60;;;;;;10371364;28;20221;-66
2021/05/25 02:13:51;;;;;;;0.93;0.60;;;13.00;40.90;;;;;;10371496;28;20317;-67
2021/05/25 02:18:54;;;;;;;0.70;0.70;;;12.90;40.70;;;;;;10371044;28;20614;-67
2021/05/25 02:23:57;;;;;;;0.80;0.63;;;12.90;40.80;;;;;;10370088;28;20665;-67
2021/05/25 02:29:00;;;;;;;0.87;0.80;;;12.80;41.00;;;;;;10370808;28;20268;-67
2021/05/25 02:34:03;;;;;;;1.87;0.73;;;12.80;40.90;;;;;;10353846;28;20310;-67
2021/05/25 02:39:07;;;;;;;0.70;0.70;;;12.80;41.00;;;;;;10346749;28;20273;-66
2021/05/25 02:44:10;;;;;;;0.80;0.70;;;12.70;41.30;;;;;;10351239;28;20230;-67
2021/05/25 02:49:13;;;;;;;1.63;0.60;;;12.70;41.00;;;;;;10347136;28;20895;-67
2021/05/25 02:54:16;;;;;;;2.90;0.70;;;12.70;41.20;;;;;;10351909;28;20317;-66
2021/05/25 02:59:20;;;;;;;0.90;0.70;;;12.70;41.60;;;;;;10348175;28;20231;-67
2021/05/25 03:04:23;;;;;;;0.97;0.73;;;12.70;41.40;;;;;;10350207;28;20254;-66
2021/05/25 03:09:29;;;;;;;1.80;0.80;;;12.80;41.40;;;;;;10348206;28;20310;-67
2021/05/25 03:14:32;;;;;;;0.93;0.87;;;12.80;41.60;;;;;;10348563;28;20762;-67
2021/05/25 03:19:35;;;;;;;1.40;0.77;;;12.80;41.40;;;;;;10348966;28;20301;-67
2021/05/25 03:24:38;;;;;;;4.77;0.83;;;12.80;41.40;;;;;;10347675;28;20257;-67
2021/05/25 03:29:41;;;;;;;1.13;0.83;;;12.90;41.70;;;;;;10349664;28;20268;-67
2021/05/25 03:34:44;;;;;;;1.67;1.40;;;12.80;41.50;;;;;;10345275;28;20250;-66
2021/05/25 03:39:48;;;;;;;0.87;0.87;;;12.80;41.40;;;;;;10349690;28;20258;-67
2021/05/25 03:44:50;;;;;;;0.90;0.70;;;12.80;41.70;;;;;;10345151;28;20227;-67
2021/05/25 03:49:53;;;;;;;1.57;1.00;;;12.70;41.50;;;;;;10350448;28;20304;-66
2021/05/25 03:54:59;;;;;;;0.80;0.73;;;12.70;41.70;;;;;;10344080;28;20302;-66
2021/05/25 04:00:03;;;;;;;2.57;0.80;;;12.70;41.70;;;;;;10342731;28;20727;-66
2021/05/25 04:05:07;;;;;;;0.87;0.77;;;12.70;41.70;;;;;;10349910;28;20288;-67
2021/05/25 04:10:12;;;;;;;0.97;0.80;;;12.70;41.70;;;;;;10343545;28;20318;-67
2021/05/25 04:15:15;;;;;;;2.70;1.07;;;12.70;41.70;;;;;;10348794;28;20660;-67
2021/05/25 04:20:18;;;;;;;1.60;0.80;;;12.70;41.70;;;;;;10344802;28;20255;-66
2021/05/25 04:25:21;;;;;;;1.67;1.00;;;12.60;41.50;;;;;;10347872;28;20249;-66
2021/05/25 04:30:24;;;;;;;0.93;0.87;;;12.60;41.50;;;;;;10345423;28;20314;-67
2021/05/25 04:35:27;;;;;;;1.33;1.00;;;12.60;41.40;;;;;;10346756;28;20223;-67
2021/05/25 04:40:32;;;;;;;2.27;1.10;;;12.60;41.20;;;;;;10346033;28;20288;-67
2021/05/25 04:45:35;;;;;;;1.50;0.80;;;12.60;41.10;;;;;;10348756;28;20281;-66
2021/05/25 04:50:40;;;;;;;1.57;0.80;;;12.60;41.00;;;;;;10353216;28;20252;-66
2021/05/25 04:55:45;;;;;;;1.63;1.00;;;12.60;41.20;;;;;;10348919;28;20898;-67
2021/05/25 05:00:47;;;;;;;1.60;0.90;;;12.60;40.80;;;;;;10352904;28;20231;-66
2021/05/25 05:05:50;;;;;;;1.97;0.80;;;12.60;40.70;;;;;;10350357;28;20636;-66
2021/05/25 05:10:54;;;;;;;1.03;0.90;;;12.70;40.80;;;;;;10352662;28;21014;-67
2021/05/25 05:15:56;;;;;;;2.10;1.00;;;12.70;40.70;;;;;;10346112;28;20772;-66
2021/05/25 05:20:59;;;;;;;1.43;0.80;;;12.70;40.70;;;;;;10354824;28;20321;-67
2021/05/25 05:26:04;;;;;;;1.63;1.20;;;12.80;40.50;;;;;;10372773;28;20268;-67
2021/05/25 05:31:07;;;;;;;2.63;1.70;;;12.80;40.50;;;;;;10372750;28;20305;-66
2021/05/25 05:36:10;;;;;;;3.30;1.17;;;12.90;40.50;;;;;;10372546;28;20234;-66
2021/05/25 05:41:14;;;;;;;2.03;1.10;;;12.90;40.50;;;;;;10372434;28;20360;-66
2021/05/25 05:46:17;;;;;;;3.00;1.10;;;12.90;40.40;;;;;;10372606;28;20268;-66
2021/05/25 05:51:20;;;;;;;0.90;0.70;;;13.00;40.20;;;;;;10372032;28;20230;-66
2021/05/25 05:56:25;;;;;;;1.70;0.80;;;12.90;40.40;;;;;;10371094;28;20794;-67
2021/05/25 06:01:27;;;;;;;1.73;0.83;;;12.90;40.30;;;;;;10371406;28;20227;-67
2021/05/25 06:06:30;;;;;;;1.20;0.90;;;13.00;40.40;;;;;;10370941;28;20226;-66
2021/05/25 06:11:34;;;;;;;1.90;0.90;;;13.00;40.20;;;;;;10371181;28;20295;-66
2021/05/25 06:16:36;;;;;;;1.17;0.90;;;13.00;39.80;;;;;;10370940;28;20806;-66
2021/05/25 06:21:39;;;;;;;2.10;1.00;;;13.10;39.80;;;;;;10370306;28;20702;-66
2021/05/25 06:26:43;;;;;;;4.57;1.10;;;13.10;39.50;;;;;;10370221;28;20234;-67
2021/05/25 06:31:46;;;;;;;1.50;1.10;;;13.20;39.30;;;;;;10369806;28;20337;-67
2021/05/25 06:36:49;;;;;;;1.53;0.90;;;13.20;39.50;;;;;;10369209;28;20250;-66
2021/05/25 06:41:52;;;;;;;2.97;1.10;;;13.30;39.70;;;;;;10369765;28;20664;-67
2021/05/25 06:46:55;;;;;;;2.10;1.20;;;13.40;39.10;;;;;;10369682;28;20328;-67
2021/05/25 06:51:58;;;;;;;3.67;1.20;;;13.50;39.10;;;;;;10369060;28;20256;-66
2021/05/25 06:57:01;;;;;;;2.27;1.00;;;13.50;38.90;;;;;;10368684;28;20261;-67
2021/05/25 07:02:04;;;;;;;1.20;1.10;;;13.50;38.60;;;;;;10368413;28;20230;-67
2021/05/25 07:07:07;;;;;;;1.60;1.20;;;13.50;38.50;;;;;;10368184;28;20234;-66
2021/05/25 07:12:12;;;;;;;2.20;1.20;;;13.60;38.50;;;;;;10368558;28;20234;-67
2021/05/25 07:17:14;;;;;;;2.90;1.07;;;13.50;38.30;;;;;;10367815;28;20238;-67
2021/05/25 07:22:17;;;;;;;1.43;0.83;;;13.60;38.80;;;;;;10367922;28;20270;-67
2021/05/25 07:27:21;;;;;;;2.20;0.97;;;13.60;38.70;;;;;;10367604;28;20238;-66
2021/05/25 07:32:24;;;;;;;2.40;0.90;;;13.70;38.20;;;;;;10368387;28;20230;-67
2021/05/25 07:37:26;;;;;;;2.00;0.73;;;13.70;38.60;;;;;;10367870;28;20254;-66
2021/05/25 07:42:30;;;;;;;1.87;0.90;;;13.80;38.40;;;;;;10367609;28;20265;-67
2021/05/25 07:47:33;;;;;;;1.73;1.00;;;13.80;37.90;;;;;;10367723;28;20226;-67
2021/05/25 07:52:37;;;;;;;1.77;0.80;;;13.90;37.90;;;;;;10367687;28;20711;-67
2021/05/25 07:57:40;;;;;;;3.93;0.90;;;13.90;37.30;;;;;;10367308;28;20226;-67
2021/05/25 08:02:45;;;;;;;1.80;0.70;;;14.00;37.70;;;;;;10366972;28;20230;-66
2021/05/25 08:07:48;;;;;;;2.73;1.17;;;14.20;37.60;;;;;;10367084;28;20276;-68
2021/05/25 08:12:51;;;;;;;1.23;0.73;;;14.30;37.50;;;;;;10366922;28;20740;-68
2021/05/25 08:23:13;;;;;;;1.47;0.73;;;14.70;37.30;;;;;;10361376;28;20310;-67
2021/05/25 08:28:17;;;;;;;1.80;0.70;;;14.90;36.50;;;;;;10366099;28;20226;-68
2021/05/25 08:33:19;;;;;;;2.97;0.70;;;15.00;35.30;;;;;;10365815;28;20634;-68
2021/05/25 08:38:23;;;;;;;2.73;0.70;;;15.10;35.60;;;;;;10366748;28;20226;-68
2021/05/25 08:43:27;;;;;;;1.67;0.70;;;15.10;35.10;;;;;;10366140;28;20222;-68
2021/05/25 08:48:30;;;;;;;1.03;0.70;;;15.30;35.10;;;;;;10366173;28;20230;-67
2021/05/25 08:53:33;;;;;;;0.87;0.70;;;15.40;34.80;;;;;;10365467;28;20321;-68
2021/05/25 08:58:37;;;;;;;0.77;0.60;;;15.50;34.90;;;;;;10365395;28;20235;-67
2021/05/25 09:03:56;;;;;;;1.30;0.70;;;15.70;34.60;;;;;;10364488;28;20230;-68
2021/05/25 09:09:06;;;;;;;2.23;1.00;;;15.90;32.10;;;;;;10364521;28;20272;-68
2021/05/25 09:14:10;;;;;;;1.10;0.70;;;16.00;32.80;;;;;;10365119;28;20321;-68
2021/05/25 09:19:13;;;;;;;1.37;0.80;;;15.90;32.90;;;;;;10365247;28;20774;-69
2021/05/25 09:24:16;;;;;;;1.43;0.80;;;15.90;32.90;;;;;;10365089;28;20313;-74
2021/05/25 09:29:20;;;;;;;0.87;0.77;;;15.90;32.90;;;;;;10366287;28;20230;-75
2021/05/25 09:34:24;;;;;;;2.87;0.83;;;16.00;33.00;;;;;;10400226;28;20230;-74
2021/05/25 09:39:29;;;;;;;0.70;0.70;;;16.10;33.10;;;;;;10389508;28;20580;-75
2021/05/25 09:44:34;;;;;;;0.77;0.70;;;16.30;31.70;;;;;;10403313;28;20226;-74
2021/05/25 09:49:37;;;;;;;1.20;0.70;;;16.40;32.00;;;;;;10412621;28;20304;-73
2021/05/25 09:54:40;;;;;;;1.47;1.00;;;16.70;32.30;;;;;;10410361;28;20672;-73
2021/05/25 09:59:44;;;;;;;2.37;1.00;;;16.80;31.40;;;;;;10411947;28;20275;-74
2021/05/25 10:04:58;;;;;;;0.90;0.80;;;16.80;30.50;;;;;;10411377;28;20226;-73
2021/05/25 10:10:03;;;;;;;2.67;1.20;;;16.90;28.90;;;;;;10403965;28;20283;-73
2021/05/25 10:15:09;;;;;;;2.27;1.00;;;17.00;30.10;;;;;;10404987;28;20226;-74
2021/05/25 10:20:13;;;;;;;1.53;0.97;;;17.00;30.10;;;;;;10396553;28;20291;-74
2021/05/25 10:25:16;;;;;;;2.70;1.17;;;17.00;30.90;;;;;;10411207;28;20606;-74
2021/05/25 10:30:35;;;;;;;2.63;1.17;;;17.10;30.50;;;;;;10390265;28;20782;-73
2021/05/25 10:35:50;;;;;;;2.03;0.90;;;17.20;29.10;;;;;;10395780;28;20608;-74
2021/05/25 10:40:55;;;;;;;2.67;0.90;;;17.20;28.70;;;;;;10390212;28;20254;-73
2021/05/25 10:46:24;;;;;;;2.63;1.50;;;17.30;29.70;;;;;;10394726;28;20226;-73
2021/05/25 10:52:16;;;;;;;1.07;0.70;;;17.40;28.80;;;;;;10396073;28;21081;-74
2021/05/25 10:57:47;;;;;;;0.80;0.60;;;17.50;30.40;;;;;;10356488;28;20748;-74
2021/05/25 11:02:53;;;;;;;1.90;0.80;;;17.80;30.50;;;;;;10389075;28;20253;-73
2021/05/25 11:07:56;;;;;;;1.93;0.90;;;18.00;29.30;;;;;;10395495;28;20776;-73
2021/05/25 11:13:21;;;;;;;1.00;0.70;;;18.10;29.90;;;;;;10401130;28;20249;-73
2021/05/25 11:18:32;;;;;;;2.67;1.70;;;18.20;29.30;;;;;;10405863;28;20287;-74
2021/05/25 11:23:39;;;;;;;2.40;0.90;;;18.30;27.10;;;;;;10400615;28;20316;-73
2021/05/25 11:29:17;;;;;;;1.27;0.83;;;18.30;28.20;;;;;;10402298;28;20669;-73
2021/05/25 11:34:23;;;;;;;0.77;0.70;;;18.40;28.90;;;;;;10391480;28;20773;-73
2021/05/25 11:39:28;;;;;;;1.80;0.80;;;18.40;27.50;;;;;;10401075;28;20312;-73
2021/05/25 11:44:37;;;;;;;1.93;0.60;;;18.40;28.20;;;;;;10385757;28;20618;-73
2021/05/25 11:49:44;;;;;;;1.00;0.80;;;18.20;28.00;;;;;;10376485;28;20232;-73
2021/05/25 11:54:47;;;;;;;2.03;0.90;;;18.20;28.10;;;;;;10395734;28;20225;-74
2021/05/25 11:59:50;;;;;;;3.13;0.87;;;18.30;27.40;;;;;;10396150;28;20229;-73
2021/05/25 12:05:13;;;;;;;2.37;1.30;;;18.30;27.10;;;;;;10386140;28;20233;-73
2021/05/25 12:10:17;;;;;;;2.60;1.10;;;18.10;26.90;;;;;;10359195;28;20229;-70
2021/05/25 12:15:22;;;;;;;1.53;0.80;;;17.90;27.70;;;;;;10396696;28;20257;-67
2021/05/25 12:20:39;;;;;;;1.73;0.60;;;17.70;27.80;;;;;;10407084;28;20264;-66
2021/05/25 12:25:45;;;;;;;2.37;0.97;;;17.60;27.40;;;;;;10406514;28;20229;-67
2021/05/25 12:30:51;;;;;;;2.57;1.30;;;17.60;28.40;;;;;;10406529;28;20252;-67
2021/05/25 12:36:12;;;;;;;2.30;0.90;;;17.50;28.50;;;;;;10406741;28;20308;-67
2021/05/25 12:41:15;;;;;;;0.60;0.60;;;17.50;28.50;;;;;;10379984;28;20253;-67
2021/05/25 12:46:18;;;;;;;1.13;0.70;;;17.60;27.80;;;;;;10365295;28;20234;-67
2021/05/25 12:51:27;;;;;;;1.37;0.73;;;17.50;28.10;;;;;;10365515;28;20380;-68
2021/05/25 12:56:30;;;;;;;1.63;0.87;;;17.40;26.30;;;;;;10362587;28;20306;-68
2021/05/25 13:01:34;;;;;;;1.70;0.90;;;17.40;27.50;;;;;;10345631;28;20321;-67
2021/05/25 13:06:47;;;;;;;2.20;0.67;;;17.30;27.90;;;;;;10347596;28;20251;-68
2021/05/25 13:12:01;;;;;;;1.63;0.60;;;17.40;27.80;;;;;;10355810;28;20302;-68
2021/05/25 13:17:09;;;;;;;5.10;0.90;;;17.40;27.80;;;;;;10372462;28;20313;-68
2021/05/25 13:22:14;;;;;;;1.53;0.70;;;17.50;27.80;;;;;;10372185;28;20280;-69
2021/05/25 13:27:22;;;;;;;1.60;0.70;;;17.70;27.80;;;;;;10372948;28;20244;-69
2021/05/25 13:32:25;;;;;;;2.10;0.87;;;17.80;26.60;;;;;;10372631;28;20253;-69
2021/05/25 13:37:29;;;;;;;1.20;0.73;;;17.90;26.90;;;;;;10372623;28;20250;-69
2021/05/25 13:42:32;;;;;;;3.13;0.73;;;18.00;27.20;;;;;;10372330;28;20691;-69
2021/05/25 13:47:35;;;;;;;1.83;0.80;;;18.20;27.20;;;;;;10371619;28;20222;-68
2021/05/25 13:52:39;;;;;;;0.70;0.70;;;18.30;26.70;;;;;;10372077;28;20270;-68
2021/05/25 13:57:43;;;;;;;2.43;0.80;;;18.40;26.50;;;;;;10372003;28;20257;-68
2021/05/25 14:02:46;;;;;;;16.97;4.47;;;18.40;26.80;;;;;;10371288;28;20254;-68
2021/05/25 14:07:52;;;;;;;2.47;1.20;;;18.50;26.70;;;;;;10371333;28;20702;-68
2021/05/25 14:12:55;;;;;;;2.20;0.90;;;18.50;26.20;;;;;;10371199;28;20325;-68
2021/05/25 14:17:58;;;;;;;1.10;0.80;;;18.50;26.70;;;;;;10369900;28;20222;-68
2021/05/25 14:23:02;;;;;;;2.50;0.80;;;18.60;26.40;;;;;;10370493;28;20253;-68
2021/05/25 14:28:05;;;;;;;1.07;0.70;;;18.60;25.40;;;;;;10353785;28;20230;-68
2021/05/25 14:33:13;;;;;;;0.80;0.70;;;18.50;25.80;;;;;;10347062;28;20730;-68
2021/05/25 14:38:17;;;;;;;1.63;0.80;;;18.40;25.40;;;;;;10351750;28;20933;-68
2021/05/25 14:43:20;;;;;;;1.17;0.80;;;18.40;25.00;;;;;;10347658;28;20329;-68
2021/05/25 14:48:24;;;;;;;2.23;0.80;;;18.30;25.50;;;;;;10349941;28;20663;-68
2021/05/25 14:53:29;;;;;;;1.37;0.70;;;18.30;25.60;;;;;;10348351;28;20317;-68
2021/05/25 14:58:33;;;;;;;1.77;0.70;;;18.30;25.70;;;;;;10348554;28;20719;-68
2021/05/25 15:03:37;;;;;;;1.90;0.90;;;18.30;25.30;;;;;;10349120;28;20254;-68
2021/05/25 15:08:52;;;;;;;1.43;0.80;;;18.40;25.60;;;;;;10347379;28;20315;-68
2021/05/25 15:13:55;;;;;;;1.80;0.87;;;18.40;24.70;;;;;;10351527;28;20245;-69
2021/05/25 15:18:57;;;;;;;2.03;0.80;;;18.40;25.60;;;;;;10344927;28;20242;-68
2021/05/25 15:24:01;;;;;;;0.87;0.73;;;18.50;25.20;;;;;;10352056;28;20238;-68
2021/05/25 15:29:04;;;;;;;2.70;0.80;;;18.60;24.70;;;;;;10367930;28;20223;-68
2021/05/25 15:34:07;;;;;;;1.27;0.70;;;18.70;24.70;;;;;;10368080;28;20258;-68
2021/05/25 15:39:11;;;;;;;1.77;0.70;;;18.80;24.70;;;;;;10367610;28;20238;-68
2021/05/25 15:44:13;;;;;;;0.97;0.70;;;18.90;24.50;;;;;;10367865;28;20230;-69
2021/05/25 15:49:16;;;;;;;2.53;1.00;;;19.00;24.60;;;;;;10367522;28;20258;-68
2021/05/25 15:54:23;;;;;;;1.10;0.80;;;18.90;24.10;;;;;;10367779;28;20317;-68
2021/05/25 15:59:27;;;;;;;1.03;0.80;;;18.80;23.80;;;;;;10367236;28;20789;-68
2021/05/25 16:04:29;;;;;;;0.90;0.70;;;18.70;24.10;;;;;;10366220;28;20258;-68
2021/05/25 16:10:09;;;;;;;1.87;0.80;;;18.60;24.40;;;;;;10357471;28;20313;-70
2021/05/25 16:15:13;;;;;;;1.67;0.83;;;18.70;24.40;;;;;;10322127;28;20229;-70
2021/05/25 16:20:18;;;;;;;1.23;0.83;;;18.70;24.40;;;;;;10380465;28;20237;-70
2021/05/25 16:25:25;;;;;;;0.87;0.70;;;18.70;23.60;;;;;;10369896;28;20240;-71
2021/05/25 16:30:27;;;;;;;0.77;0.77;;;18.60;23.20;;;;;;10378446;28;20244;-70
2021/05/25 16:35:31;;;;;;;1.80;1.20;;;18.60;24.30;;;;;;10379002;28;20324;-70
2021/05/25 16:40:35;;;;;;;1.70;1.10;;;18.60;23.90;;;;;;10385351;28;20306;-70
2021/05/25 16:52:01;;;;;;;1.40;0.87;;;18.70;23.60;;;;;;10389526;28;20650;-70
2021/05/25 16:57:05;;;;;;;1.53;0.70;;;18.70;24.30;;;;;;10386186;28;20229;-70
2021/05/25 17:02:13;;;;;;;1.23;0.70;;;18.70;24.10;;;;;;10389389;28;20248;-69
2021/05/25 17:07:34;;;;;;;2.27;1.20;;;18.70;23.80;;;;;;10383282;28;20248;-71
2021/05/25 17:12:54;;;;;;;3.00;0.70;;;18.80;23.60;;;;;;10392036;28;20279;-71
2021/05/25 17:17:57;;;;;;;0.70;0.70;;;18.80;22.70;;;;;;10388564;28;20262;-71
2021/05/25 17:23:00;;;;;;;0.93;0.70;;;18.90;23.50;;;;;;10386010;28;20744;-71
2021/05/25 17:28:04;;;;;;;0.70;0.70;;;18.90;23.10;;;;;;10389095;28;20230;-71
2021/05/25 17:33:07;;;;;;;1.83;0.80;;;18.90;22.90;;;;;;10389202;28;20299;-71
2021/05/25 17:38:10;;;;;;;0.97;0.70;;;19.00;23.30;;;;;;10391272;28;20341;-71
2021/05/25 17:43:13;;;;;;;0.83;0.80;;;18.90;22.90;;;;;;10390681;28;20291;-71
2021/05/25 17:48:16;;;;;;;3.20;1.07;;;18.90;22.70;;;;;;10382556;28;21065;-71
2021/05/25 17:53:19;;;;;;;1.33;0.80;;;18.90;23.30;;;;;;10376822;28;20262;-71
2021/05/25 17:58:23;;;;;;;1.57;0.70;;;18.90;23.40;;;;;;10379658;28;20253;-71
2021/05/25 18:03:25;;;;;;;1.27;0.80;;;18.90;23.00;;;;;;10388251;28;20292;-71
2021/05/25 18:08:28;;;;;;;2.17;0.97;;;18.90;23.10;;;;;;10388086;28;20706;-71
2021/05/25 18:13:33;;;;;;;1.30;0.80;;;18.90;23.20;;;;;;10389254;28;20305;-71
2021/05/25 18:18:36;;;;;;;1.27;0.80;;;18.90;23.00;;;;;;10383934;28;20299;-71
2021/05/25 18:23:40;;;;;;;2.00;0.70;;;18.80;23.10;;;;;;10389608;28;20333;-71
2021/05/25 18:28:44;;;;;;;5.63;1.10;;;18.80;23.40;;;;;;10384249;28;20560;-71
2021/05/25 18:33:52;;;;;;;1.50;1.00;;;18.70;24.40;;;;;;10386474;28;20706;-72
2021/05/25 18:44:27;;;;;;;2.80;0.90;;;18.70;23.40;;;;;;10383397;28;20708;-71
2021/05/25 18:49:31;;;;;;;1.47;0.90;;;18.60;22.90;;;;;;10384885;28;20222;-71
2021/05/25 18:54:34;;;;;;;1.27;1.10;;;18.50;24.00;;;;;;10388920;28;20221;-71
2021/05/25 18:59:38;;;;;;;2.20;1.00;;;18.40;23.60;;;;;;10382618;28;20301;-72
2021/05/25 19:04:40;;;;;;;1.13;0.80;;;18.30;23.50;;;;;;10383733;28;20353;-72
2021/05/25 19:09:45;;;;;;;2.37;1.00;;;18.20;24.10;;;;;;10384087;28;20308;-71
2021/05/25 19:14:48;;;;;;;0.80;0.80;;;18.10;24.00;;;;;;10386088;28;20321;-71
2021/05/25 19:19:56;;;;;;;1.70;1.17;;;18.10;24.00;;;;;;10382482;28;20283;-72
2021/05/25 19:25:03;;;;;;;0.93;0.93;;;18.00;24.00;;;;;;10380373;28;20230;-71
2021/05/25 19:30:08;;;;;;;1.87;1.00;;;18.00;24.40;;;;;;10382988;28;20228;-71
2021/05/25 19:35:11;;;;;;;2.40;1.30;;;18.00;24.60;;;;;;10379110;28;20756;-71
2021/05/25 19:40:15;;;;;;;1.43;1.00;;;17.90;24.50;;;;;;10380027;28;20239;-71
2021/05/25 19:45:19;;;;;;;1.30;1.20;;;17.90;24.80;;;;;;10379507;28;20235;-71
2021/05/25 19:50:22;;;;;;;1.97;1.20;;;17.80;24.90;;;;;;10367118;28;20875;-71
2021/05/25 19:55:25;;;;;;;1.87;0.90;;;17.70;24.50;;;;;;10365459;28;20229;-71
2021/05/25 20:00:29;;;;;;;1.30;0.93;;;17.60;24.40;;;;;;10373176;28;20280;-71
2021/05/25 20:05:34;;;;;;;2.13;1.10;;;17.40;24.40;;;;;;10365463;28;20324;-71
2021/05/25 20:10:37;;;;;;;2.27;1.00;;;17.10;24.30;;;;;;10369438;28;20380;-71
2021/05/25 20:15:40;;;;;;;3.53;1.10;;;16.80;24.50;;;;;;10376167;28;20232;-71
2021/05/25 20:20:43;;;;;;;1.10;1.00;;;16.50;24.80;;;;;;10373679;28;20268;-71
2021/05/25 20:25:46;;;;;;;1.53;1.30;;;16.20;25.00;;;;;;10380712;28;20328;-71
2021/05/25 20:30:51;;;;;;;3.00;1.53;;;16.10;25.20;;;;;;10376258;28;20222;-71
2021/05/25 20:41:15;;;;;;;1.63;1.30;;;15.70;25.30;;;;;;10377499;28;20226;-71
2021/05/25 20:46:19;;;;;;;3.63;1.20;;;15.50;25.40;;;;;;10392654;28;20241;-71
2021/05/25 20:51:22;;;;;;;1.27;1.10;;;15.40;25.70;;;;;;10406064;28;20265;-70
2021/05/25 20:56:25;;;;;;;1.87;1.10;;;15.30;25.70;;;;;;10405944;28;20596;-71
2021/05/25 21:01:29;;;;;;;2.00;1.10;;;15.40;25.90;;;;;;10403996;28;20316;-71
2021/05/25 21:06:31;;;;;;;3.03;1.37;;;15.40;26.10;;;;;;10404051;28;20734;-71
2021/05/25 21:11:34;;;;;;;4.27;1.40;;;15.40;25.80;;;;;;10388977;28;20229;-72
2021/05/25 21:16:38;;;;;;;1.67;1.40;;;15.20;25.70;;;;;;10375435;28;20232;-72
2021/05/25 21:21:40;;;;;;;2.50;1.30;;;15.00;25.90;;;;;;10371275;28;20262;-72
2021/05/25 21:26:43;;;;;;;2.20;1.37;;;14.90;26.00;;;;;;10380801;28;20710;-72
2021/05/25 21:31:47;;;;;;;1.40;1.20;;;14.60;25.90;;;;;;10383167;28;20257;-72
2021/05/25 21:36:50;;;;;;;4.37;1.43;;;14.40;26.10;;;;;;10386987;28;20236;-72
2021/05/25 21:41:52;;;;;;;3.83;1.40;;;14.10;26.30;;;;;;10384674;28;20224;-72
2021/05/25 21:46:56;;;;;;;2.47;1.37;;;14.00;26.50;;;;;;10387349;28;20318;-72
2021/05/25 21:52:01;;;;;;;2.07;1.40;;;13.90;26.80;;;;;;10386157;28;20232;-72
2021/05/25 21:57:05;;;;;;;2.20;1.17;;;13.80;26.70;;;;;;10384948;28;20240;-72
2021/05/25 22:02:09;;;;;;;2.80;1.37;;;13.80;26.70;;;;;;10384377;28;20670;-72
2021/05/25 22:07:12;;;;;;;2.40;1.13;;;13.60;26.70;;;;;;10391037;28;20309;-73
2021/05/25 22:12:16;;;;;;;1.50;1.20;;;13.60;26.90;;;;;;10387348;28;20222;-72
2021/05/25 22:17:20;;;;;;;2.50;1.63;;;13.40;27.00;;;;;;10382796;28;20241;-72
2021/05/25 22:22:23;;;;;;;3.63;1.30;;;13.30;27.00;;;;;;10387568;28;20237;-72
2021/05/25 22:27:26;;;;;;;1.83;1.10;;;13.20;27.00;;;;;;10379647;28;20235;-72
2021/05/25 22:32:29;;;;;;;1.83;1.20;;;13.10;27.20;;;;;;10381732;28;20317;-72
2021/05/25 22:37:33;;;;;;;1.40;1.10;;;13.00;27.30;;;;;;10386408;28;20241;-72
2021/05/25 22:42:36;;;;;;;2.10;1.10;;;13.00;27.50;;;;;;10379309;28;20332;-72
2021/05/25 22:47:40;;;;;;;1.90;1.03;;;12.90;27.40;;;;;;10381164;28;20241;-72
2021/05/25 22:52:43;;;;;;;1.93;1.03;;;12.90;27.50;;;;;;10383456;28;20728;-72
2021/05/25 22:57:46;;;;;;;1.17;1.00;;;12.90;27.60;;;;;;10396411;28;20229;-72
2021/05/25 23:02:51;;;;;;;1.63;1.20;;;12.90;27.60;;;;;;10390232;28;20295;-72
2021/05/25 23:07:53;;;;;;;1.50;1.00;;;12.90;27.80;;;;;;10384107;28;20264;-72
2021/05/25 23:12:56;;;;;;;1.97;1.10;;;12.90;27.70;;;;;;10397852;28;20644;-72
2021/05/25 23:18:00;;;;;;;1.40;1.10;;;12.80;27.70;;;;;;10379442;28;20311;-72
2021/05/25 23:23:04;;;;;;;1.07;0.93;;;12.80;28.10;;;;;;10374554;28;20279;-72
2021/05/25 23:28:07;;;;;;;3.13;1.27;;;12.70;27.80;;;;;;10384884;28;20269;-72
2021/05/25 23:33:11;;;;;;;1.50;1.20;;;12.60;27.70;;;;;;10389027;28;20321;-72
2021/05/25 23:38:17;;;;;;;2.13;1.10;;;12.60;28.10;;;;;;10389183;28;20269;-72
2021/05/25 23:43:20;;;;;;;2.20;1.10;;;12.60;28.10;;;;;;10386652;28;20317;-73
2021/05/25 23:48:23;;;;;;;1.73;1.30;;;12.60;28.20;;;;;;10394381;28;23545;-72
2021/05/25 23:53:26;;;;;;;1.70;1.20;;;12.60;28.30;;;;;;10378705;28;20229;-72
2021/05/25 23:58:29;;;;;;;1.20;1.03;;;12.70;28.40;;;;;;10384384;28;20222;-72
